sensor_id;sensor_type;location;lat;lon;timestamp;pressure;altitude;pressure_sealevel;temperature;humidity
57801;BME280;43627;42.728;23.256;2023-04-08T00:00:09;95069.00;;;4.61;100.00
57801;BME280;43627;42.728;23.256;2023-04-08T00:02:36;95048.25;;;4.57;100.00
57801;BME280;43627;42.728;23.256;2023-04-08T00:05:03;95056.84;;;4.52;100.00
57801;BME280;43627;42.728;23.256;2023-04-08T00:07:30;95060.66;;;4.55;100.00
57801;BME280;43627;42.728;23.256;2023-04-08T00:09:57;95048.69;;;4.56;100.00
57801;BME280;43627;42.728;23.256;2023-04-08T00:12:23;95065.56;;;4.60;100.00
57801;BME280;43627;42.728;23.256;2023-04-08T00:14:51;95061.44;;;4.55;100.00
57801;BME280;43627;42.728;23.256;2023-04-08T00:17:18;95068.69;;;4.58;100.00
57801;BME280;43627;42.728;23.256;2023-04-08T00:19:44;95056.84;;;4.52;100.00
57801;BME280;43627;42.728;23.256;2023-04-08T00:22:11;95054.81;;;4.40;100.00
57801;BME280;43627;42.728;23.256;2023-04-08T00:24:38;95063.06;;;4.33;100.00
57801;BME280;43627;42.728;23.256;2023-04-08T00:27:06;95040.09;;;4.25;100.00
57801;BME280;43627;42.728;23.256;2023-04-08T00:29:32;95052.97;;;4.37;100.00
57801;BME280;43627;42.728;23.256;2023-04-08T00:31:59;95052.63;;;4.51;100.00
57801;BME280;43627;42.728;23.256;2023-04-08T00:34:26;95040.78;;;4.45;100.00
57801;BME280;43627;42.728;23.256;2023-04-08T00:36:52;95048.91;;;4.45;100.00
57801;BME280;43627;42.728;23.256;2023-04-08T00:39:19;95060.81;;;4.48;100.00
57801;BME280;43627;42.728;23.256;2023-04-08T00:41:46;95061.91;;;4.50;100.00
57801;BME280;43627;42.728;23.256;2023-04-08T00:44:13;95066.69;;;4.26;100.00
57801;BME280;43627;42.728;23.256;2023-04-08T00:46:39;95069.03;;;4.24;100.00
57801;BME280;43627;42.728;23.256;2023-04-08T00:49:06;95064.88;;;4.20;100.00
57801;BME280;43627;42.728;23.256;2023-04-08T00:51:33;95066.63;;;4.10;100.00
57801;BME280;43627;42.728;23.256;2023-04-08T00:54:03;95062.91;;;4.04;100.00
57801;BME280;43627;42.728;23.256;2023-04-08T00:56:31;95057.44;;;3.88;100.00
57801;BME280;43627;42.728;23.256;2023-04-08T00:58:59;95066.09;;;3.79;100.00
57801;BME280;43627;42.728;23.256;2023-04-08T01:07:05;95072.50;;;3.65;100.00
57801;BME280;43627;42.728;23.256;2023-04-08T01:09:37;95067.81;;;3.69;100.00
57801;BME280;43627;42.728;23.256;2023-04-08T01:12:06;95070.66;;;3.82;100.00
57801;BME280;43627;42.728;23.256;2023-04-08T01:14:38;95066.56;;;3.74;100.00
57801;BME280;43627;42.728;23.256;2023-04-08T01:17:07;95081.22;;;3.73;100.00
57801;BME280;43627;42.728;23.256;2023-04-08T01:19:38;95078.97;;;3.71;100.00
57801;BME280;43627;42.728;23.256;2023-04-08T01:24:46;95063.59;;;3.68;100.00
57801;BME280;43627;42.728;23.256;2023-04-08T01:27:16;95072.41;;;3.49;100.00
57801;BME280;43627;42.728;23.256;2023-04-08T01:29:46;95058.88;;;3.53;100.00
57801;BME280;43627;42.728;23.256;2023-04-08T01:32:15;95067.44;;;3.48;100.00
57801;BME280;43627;42.728;23.256;2023-04-08T01:34:43;95052.88;;;3.45;100.00
57801;BME280;43627;42.728;23.256;2023-04-08T01:37:11;95081.16;;;3.57;100.00
57801;BME280;43627;42.728;23.256;2023-04-08T01:39:40;95069.75;;;3.69;100.00
57801;BME280;43627;42.728;23.256;2023-04-08T01:42:08;95082.41;;;3.72;100.00
57801;BME280;43627;42.728;23.256;2023-04-08T01:44:37;95080.06;;;3.74;100.00
57801;BME280;43627;42.728;23.256;2023-04-08T01:47:06;95071.28;;;3.70;100.00
57801;BME280;43627;42.728;23.256;2023-04-08T01:49:33;95072.38;;;3.72;100.00
57801;BME280;43627;42.728;23.256;2023-04-08T01:52:01;95084.47;;;3.84;100.00
57801;BME280;43627;42.728;23.256;2023-04-08T01:54:28;95084.00;;;3.89;100.00
57801;BME280;43627;42.728;23.256;2023-04-08T01:56:56;95081.16;;;3.96;100.00
57801;BME280;43627;42.728;23.256;2023-04-08T01:59:28;95034.34;;;3.67;100.00
57801;BME280;43627;42.728;23.256;2023-04-08T02:01:55;95087.59;;;4.03;100.00
57801;BME280;43627;42.728;23.256;2023-04-08T02:04:22;95091.56;;;3.98;100.00
57801;BME280;43627;42.728;23.256;2023-04-08T02:06:49;95090.75;;;3.97;100.00
57801;BME280;43627;42.728;23.256;2023-04-08T02:09:16;95099.78;;;4.11;100.00
57801;BME280;43627;42.728;23.256;2023-04-08T02:11:43;95097.84;;;4.11;100.00
57801;BME280;43627;42.728;23.256;2023-04-08T02:14:09;95088.50;;;3.96;100.00
57801;BME280;43627;42.728;23.256;2023-04-08T02:16:43;95097.41;;;4.13;100.00
57801;BME280;43627;42.728;23.256;2023-04-08T02:19:20;95105.94;;;4.11;100.00
57801;BME280;43627;42.728;23.256;2023-04-08T02:21:54;95106.59;;;4.15;100.00
57801;BME280;43627;42.728;23.256;2023-04-08T02:24:24;95074.38;;;3.88;100.00
57801;BME280;43627;42.728;23.256;2023-04-08T02:26:53;95103.69;;;4.06;100.00
57801;BME280;43627;42.728;23.256;2023-04-08T02:29:21;95096.94;;;3.98;100.00
57801;BME280;43627;42.728;23.256;2023-04-08T02:31:49;95097.63;;;4.02;100.00
57801;BME280;43627;42.728;23.256;2023-04-08T02:34:19;95086.91;;;3.98;100.00
57801;BME280;43627;42.728;23.256;2023-04-08T02:36:47;95094.59;;;4.00;100.00
57801;BME280;43627;42.728;23.256;2023-04-08T02:39:13;95103.66;;;4.10;100.00
57801;BME280;43627;42.728;23.256;2023-04-08T02:41:40;95103.66;;;4.10;100.00
57801;BME280;43627;42.728;23.256;2023-04-08T02:44:08;95098.72;;;4.05;100.00
57801;BME280;43627;42.728;23.256;2023-04-08T02:46:35;95096.75;;;4.09;100.00
57801;BME280;43627;42.728;23.256;2023-04-08T02:49:02;95093.66;;;4.07;100.00
57801;BME280;43627;42.728;23.256;2023-04-08T02:51:29;95090.84;;;3.94;100.00
57801;BME280;43627;42.728;23.256;2023-04-08T02:53:56;95083.72;;;3.64;100.00
57801;BME280;43627;42.728;23.256;2023-04-08T02:56:22;95090.09;;;3.73;100.00
57801;BME280;43627;42.728;23.256;2023-04-08T02:58:49;95098.66;;;3.88;100.00
57801;BME280;43627;42.728;23.256;2023-04-08T03:01:17;95079.78;;;3.88;100.00
57801;BME280;43627;42.728;23.256;2023-04-08T03:03:44;95097.72;;;3.98;100.00
57801;BME280;43627;42.728;23.256;2023-04-08T03:06:11;95110.03;;;3.99;100.00
57801;BME280;43627;42.728;23.256;2023-04-08T03:08:38;95101.34;;;3.88;100.00
57801;BME280;43627;42.728;23.256;2023-04-08T03:11:04;95101.97;;;3.96;100.00
57801;BME280;43627;42.728;23.256;2023-04-08T03:13:31;95086.06;;;4.01;100.00
57801;BME280;43627;42.728;23.256;2023-04-08T03:15:58;95092.66;;;4.00;100.00
57801;BME280;43627;42.728;23.256;2023-04-08T03:18:24;95089.25;;;3.96;100.00
57801;BME280;43627;42.728;23.256;2023-04-08T03:20:51;95081.16;;;3.77;100.00
57801;BME280;43627;42.728;23.256;2023-04-08T03:23:18;95102.13;;;3.89;100.00
57801;BME280;43627;42.728;23.256;2023-04-08T03:25:45;95082.28;;;3.99;100.00
57801;BME280;43627;42.728;23.256;2023-04-08T03:28:12;95085.75;;;3.99;100.00
57801;BME280;43627;42.728;23.256;2023-04-08T03:30:38;95099.91;;;4.04;100.00
57801;BME280;43627;42.728;23.256;2023-04-08T03:33:05;95099.16;;;4.03;100.00
57801;BME280;43627;42.728;23.256;2023-04-08T03:35:33;95099.22;;;3.99;100.00
57801;BME280;43627;42.728;23.256;2023-04-08T03:38:00;95104.25;;;3.97;100.00
57801;BME280;43627;42.728;23.256;2023-04-08T03:40:27;95100.03;;;3.96;100.00
57801;BME280;43627;42.728;23.256;2023-04-08T03:42:53;95093.53;;;3.94;100.00
57801;BME280;43627;42.728;23.256;2023-04-08T03:45:20;95104.34;;;3.94;100.00
57801;BME280;43627;42.728;23.256;2023-04-08T03:47:47;95102.81;;;3.93;100.00
57801;BME280;43627;42.728;23.256;2023-04-08T03:50:14;95099.03;;;3.90;100.00
57801;BME280;43627;42.728;23.256;2023-04-08T03:52:41;95104.41;;;3.90;100.00
57801;BME280;43627;42.728;23.256;2023-04-08T03:55:08;95097.13;;;3.87;100.00
57801;BME280;43627;42.728;23.256;2023-04-08T03:57:34;95091.91;;;3.80;100.00
57801;BME280;43627;42.728;23.256;2023-04-08T04:00:01;95103.50;;;3.77;100.00
57801;BME280;43627;42.728;23.256;2023-04-08T04:02:28;95102.81;;;3.73;100.00
57801;BME280;43627;42.728;23.256;2023-04-08T04:04:55;95102.59;;;3.64;100.00
57801;BME280;43627;42.728;23.256;2023-04-08T04:07:22;95094.28;;;3.55;100.00
57801;BME280;43627;42.728;23.256;2023-04-08T04:09:48;95094.16;;;3.62;100.00
57801;BME280;43627;42.728;23.256;2023-04-08T04:12:19;95087.56;;;3.43;100.00
57801;BME280;43627;42.728;23.256;2023-04-08T04:14:46;95111.56;;;3.57;100.00
57801;BME280;43627;42.728;23.256;2023-04-08T04:17:13;95111.41;;;3.44;100.00
57801;BME280;43627;42.728;23.256;2023-04-08T04:19:40;95092.16;;;3.23;100.00
57801;BME280;43627;42.728;23.256;2023-04-08T04:22:06;95117.69;;;3.38;100.00
57801;BME280;43627;42.728;23.256;2023-04-08T04:24:33;95118.00;;;3.40;100.00
57801;BME280;43627;42.728;23.256;2023-04-08T04:27:00;95121.44;;;3.44;100.00
57801;BME280;43627;42.728;23.256;2023-04-08T04:29:26;95125.72;;;3.41;100.00
57801;BME280;43627;42.728;23.256;2023-04-08T04:31:53;95106.84;;;3.41;100.00
57801;BME280;43627;42.728;23.256;2023-04-08T04:34:20;95107.75;;;3.55;100.00
57801;BME280;43627;42.728;23.256;2023-04-08T04:36:46;95117.66;;;3.61;100.00
57801;BME280;43627;42.728;23.256;2023-04-08T04:39:13;95116.06;;;3.64;100.00
57801;BME280;43627;42.728;23.256;2023-04-08T04:41:40;95124.44;;;3.69;100.00
57801;BME280;43627;42.728;23.256;2023-04-08T04:44:06;95100.84;;;3.54;100.00
57801;BME280;43627;42.728;23.256;2023-04-08T04:46:33;95115.66;;;3.65;100.00
57801;BME280;43627;42.728;23.256;2023-04-08T04:49:00;95121.53;;;3.60;100.00
57801;BME280;43627;42.728;23.256;2023-04-08T04:51:26;95110.47;;;3.55;100.00
57801;BME280;43627;42.728;23.256;2023-04-08T04:53:53;95121.59;;;3.57;100.00
57801;BME280;43627;42.728;23.256;2023-04-08T04:56:20;95119.84;;;3.47;100.00
57801;BME280;43627;42.728;23.256;2023-04-08T04:58:47;95124.78;;;3.52;100.00
57801;BME280;43627;42.728;23.256;2023-04-08T05:01:14;95121.69;;;3.50;100.00
57801;BME280;43627;42.728;23.256;2023-04-08T05:03:41;95121.94;;;3.59;100.00
57801;BME280;43627;42.728;23.256;2023-04-08T05:06:07;95120.16;;;3.72;100.00
57801;BME280;43627;42.728;23.256;2023-04-08T05:08:34;95114.56;;;3.83;100.00
57801;BME280;43627;42.728;23.256;2023-04-08T05:11:01;95110.41;;;3.78;100.00
57801;BME280;43627;42.728;23.256;2023-04-08T05:13:28;95132.06;;;3.94;100.00
57801;BME280;43627;42.728;23.256;2023-04-08T05:15:54;95127.59;;;4.08;100.00
57801;BME280;43627;42.728;23.256;2023-04-08T05:18:21;95130.28;;;4.08;100.00
57801;BME280;43627;42.728;23.256;2023-04-08T05:20:48;95140.59;;;4.13;100.00
57801;BME280;43627;42.728;23.256;2023-04-08T05:23:14;95126.81;;;4.27;100.00
57801;BME280;43627;42.728;23.256;2023-04-08T05:25:41;95120.59;;;4.30;100.00
57801;BME280;43627;42.728;23.256;2023-04-08T05:28:08;95119.81;;;4.49;100.00
57801;BME280;43627;42.728;23.256;2023-04-08T05:30:35;95123.53;;;4.55;100.00
57801;BME280;43627;42.728;23.256;2023-04-08T05:33:02;95114.53;;;4.78;100.00
57801;BME280;43627;42.728;23.256;2023-04-08T05:35:29;95124.59;;;4.94;100.00
57801;BME280;43627;42.728;23.256;2023-04-08T05:37:56;95124.25;;;5.08;100.00
57801;BME280;43627;42.728;23.256;2023-04-08T05:40:23;95122.44;;;5.22;100.00
57801;BME280;43627;42.728;23.256;2023-04-08T05:42:49;95127.47;;;5.36;100.00
57801;BME280;43627;42.728;23.256;2023-04-08T05:45:16;95131.09;;;5.45;100.00
57801;BME280;43627;42.728;23.256;2023-04-08T05:47:43;95135.41;;;5.59;100.00
57801;BME280;43627;42.728;23.256;2023-04-08T05:50:10;95136.66;;;5.71;100.00
57801;BME280;43627;42.728;23.256;2023-04-08T05:52:40;95132.66;;;5.76;100.00
57801;BME280;43627;42.728;23.256;2023-04-08T05:55:07;95124.91;;;5.61;100.00
57801;BME280;43627;42.728;23.256;2023-04-08T05:57:34;95124.69;;;5.85;100.00
57801;BME280;43627;42.728;23.256;2023-04-08T06:00:01;95128.06;;;5.89;98.88
57801;BME280;43627;42.728;23.256;2023-04-08T06:02:27;95123.06;;;6.04;100.00
57801;BME280;43627;42.728;23.256;2023-04-08T06:04:54;95111.81;;;6.05;99.15
57801;BME280;43627;42.728;23.256;2023-04-08T06:07:21;95119.69;;;5.99;100.00
57801;BME280;43627;42.728;23.256;2023-04-08T06:09:47;95117.28;;;6.18;100.00
57801;BME280;43627;42.728;23.256;2023-04-08T06:12:14;95110.75;;;6.15;96.92
57801;BME280;43627;42.728;23.256;2023-04-08T06:14:41;95127.81;;;6.28;97.08
57801;BME280;43627;42.728;23.256;2023-04-08T06:17:08;95123.78;;;6.33;94.25
57801;BME280;43627;42.728;23.256;2023-04-08T06:19:34;95114.16;;;6.32;92.07
57801;BME280;43627;42.728;23.256;2023-04-08T06:22:01;95120.25;;;6.49;86.02
57801;BME280;43627;42.728;23.256;2023-04-08T06:24:28;95101.19;;;6.52;82.12
57801;BME280;43627;42.728;23.256;2023-04-08T06:26:55;95123.22;;;6.67;80.18
57801;BME280;43627;42.728;23.256;2023-04-08T06:29:22;95116.38;;;6.75;81.78
57801;BME280;43627;42.728;23.256;2023-04-08T06:31:49;95115.84;;;6.80;83.74
57801;BME280;43627;42.728;23.256;2023-04-08T06:34:16;95120.59;;;6.89;79.91
57801;BME280;43627;42.728;23.256;2023-04-08T06:36:43;95119.41;;;6.90;82.01
57801;BME280;43627;42.728;23.256;2023-04-08T06:39:09;95142.41;;;6.85;80.06
57801;BME280;43627;42.728;23.256;2023-04-08T06:41:36;95127.34;;;6.84;81.90
57801;BME280;43627;42.728;23.256;2023-04-08T06:44:03;95117.13;;;6.63;82.62
57801;BME280;43627;42.728;23.256;2023-04-08T06:46:30;95138.72;;;6.92;86.92
57801;BME280;43627;42.728;23.256;2023-04-08T06:48:56;95133.94;;;7.09;82.38
57801;BME280;43627;42.728;23.256;2023-04-08T06:51:23;95133.41;;;7.14;79.18
57801;BME280;43627;42.728;23.256;2023-04-08T06:53:50;95135.03;;;6.99;81.49
57801;BME280;43627;42.728;23.256;2023-04-08T06:56:16;95132.97;;;7.15;81.74
57801;BME280;43627;42.728;23.256;2023-04-08T06:58:43;95133.94;;;7.09;81.21
57801;BME280;43627;42.728;23.256;2023-04-08T07:01:10;95115.41;;;6.95;79.25
57801;BME280;43627;42.728;23.256;2023-04-08T07:03:37;95136.53;;;7.00;78.17
57801;BME280;43627;42.728;23.256;2023-04-08T07:06:03;95135.78;;;6.86;82.56
57801;BME280;43627;42.728;23.256;2023-04-08T07:08:30;95134.81;;;7.06;90.42
57801;BME280;43627;42.728;23.256;2023-04-08T07:10:57;95131.44;;;7.40;80.63
57801;BME280;43627;42.728;23.256;2023-04-08T07:13:23;95137.63;;;7.40;78.95
57801;BME280;43627;42.728;23.256;2023-04-08T07:15:50;95144.50;;;7.67;75.72
57801;BME280;43627;42.728;23.256;2023-04-08T07:18:17;95143.72;;;7.79;74.43
57801;BME280;43627;42.728;23.256;2023-04-08T07:20:44;95131.91;;;7.95;72.68
57801;BME280;43627;42.728;23.256;2023-04-08T07:23:10;95136.56;;;7.72;71.56
57801;BME280;43627;42.728;23.256;2023-04-08T07:25:37;95142.34;;;7.62;70.48
57801;BME280;43627;42.728;23.256;2023-04-08T07:28:04;95139.13;;;7.41;72.48
57801;BME280;43627;42.728;23.256;2023-04-08T07:30:30;95131.34;;;7.18;73.30
57801;BME280;43627;42.728;23.256;2023-04-08T07:32:57;95135.47;;;6.97;76.35
57801;BME280;43627;42.728;23.256;2023-04-08T07:35:26;95147.72;;;7.14;76.65
57801;BME280;43627;42.728;23.256;2023-04-08T07:37:53;95156.38;;;7.35;76.75
57801;BME280;43627;42.728;23.256;2023-04-08T07:40:20;95158.66;;;7.36;75.56
57801;BME280;43627;42.728;23.256;2023-04-08T07:42:47;95162.34;;;7.42;76.42
57801;BME280;43627;42.728;23.256;2023-04-08T07:45:14;95155.69;;;7.56;74.97
57801;BME280;43627;42.728;23.256;2023-04-08T07:47:41;95159.03;;;7.73;73.67
57801;BME280;43627;42.728;23.256;2023-04-08T07:50:08;95167.41;;;8.00;73.41
57801;BME280;43627;42.728;23.256;2023-04-08T07:52:35;95168.31;;;7.97;70.87
57801;BME280;43627;42.728;23.256;2023-04-08T07:55:01;95158.66;;;8.18;70.50
57801;BME280;43627;42.728;23.256;2023-04-08T07:57:28;95174.06;;;8.21;71.66
57801;BME280;43627;42.728;23.256;2023-04-08T07:59:55;95164.47;;;8.29;69.25
57801;BME280;43627;42.728;23.256;2023-04-08T08:02:22;95178.16;;;8.39;68.95
57801;BME280;43627;42.728;23.256;2023-04-08T08:04:49;95184.66;;;8.41;69.14
57801;BME280;43627;42.728;23.256;2023-04-08T08:07:16;95191.63;;;8.64;70.04
57801;BME280;43627;42.728;23.256;2023-04-08T08:09:42;95167.34;;;8.70;68.50
57801;BME280;43627;42.728;23.256;2023-04-08T08:12:09;95162.03;;;8.66;67.13
57801;BME280;43627;42.728;23.256;2023-04-08T08:14:37;95168.94;;;8.58;68.65
57801;BME280;43627;42.728;23.256;2023-04-08T08:17:04;95154.31;;;8.21;70.67
57801;BME280;43627;42.728;23.256;2023-04-08T08:19:30;95172.06;;;7.78;75.10
57801;BME280;43627;42.728;23.256;2023-04-08T08:21:57;95158.09;;;7.54;78.19
57801;BME280;43627;42.728;23.256;2023-04-08T08:24:24;95168.59;;;7.78;79.84
57801;BME280;43627;42.728;23.256;2023-04-08T08:26:51;95181.31;;;8.02;76.95
57801;BME280;43627;42.728;23.256;2023-04-08T08:29:18;95182.91;;;8.13;75.34
57801;BME280;43627;42.728;23.256;2023-04-08T08:31:44;95169.22;;;8.16;75.87
57801;BME280;43627;42.728;23.256;2023-04-08T08:34:11;95185.59;;;8.25;76.35
57801;BME280;43627;42.728;23.256;2023-04-08T08:36:38;95168.34;;;8.41;76.09
57801;BME280;43627;42.728;23.256;2023-04-08T08:39:05;95185.69;;;8.56;76.38
57801;BME280;43627;42.728;23.256;2023-04-08T08:41:33;95157.38;;;8.45;76.07
57801;BME280;43627;42.728;23.256;2023-04-08T08:44:04;95165.59;;;8.54;75.52
57801;BME280;43627;42.728;23.256;2023-04-08T08:46:30;95151.66;;;8.74;71.27
57801;BME280;43627;42.728;23.256;2023-04-08T08:48:57;95168.91;;;9.11;68.08
57801;BME280;43627;42.728;23.256;2023-04-08T08:51:26;95160.09;;;8.98;66.14
57801;BME280;43627;42.728;23.256;2023-04-08T08:53:53;95156.81;;;8.81;67.44
57801;BME280;43627;42.728;23.256;2023-04-08T08:56:20;95168.94;;;8.89;67.66
57801;BME280;43627;42.728;23.256;2023-04-08T08:58:47;95169.34;;;9.00;68.54
57801;BME280;43627;42.728;23.256;2023-04-08T09:04:13;95169.63;;;9.02;68.90
57801;BME280;43627;42.728;23.256;2023-04-08T09:06:46;95161.69;;;9.17;65.59
57801;BME280;43627;42.728;23.256;2023-04-08T09:09:14;95162.88;;;9.16;66.65
57801;BME280;43627;42.728;23.256;2023-04-08T09:11:43;95163.03;;;9.12;66.64
57801;BME280;43627;42.728;23.256;2023-04-08T09:14:21;95168.19;;;8.88;68.17
57801;BME280;43627;42.728;23.256;2023-04-08T09:16:49;95155.28;;;9.02;68.54
57801;BME280;43627;42.728;23.256;2023-04-08T09:19:16;95170.63;;;9.27;64.78
57801;BME280;43627;42.728;23.256;2023-04-08T09:21:44;95163.00;;;9.03;66.35
57801;BME280;43627;42.728;23.256;2023-04-08T09:24:27;95171.00;;;9.07;66.50
57801;BME280;43627;42.728;23.256;2023-04-08T09:26:54;95168.25;;;8.98;67.27
57801;BME280;43627;42.728;23.256;2023-04-08T09:29:25;95161.28;;;9.37;68.07
57801;BME280;43627;42.728;23.256;2023-04-08T09:31:58;95138.69;;;9.58;62.13
57801;BME280;43627;42.728;23.256;2023-04-08T09:34:27;95156.72;;;9.83;60.68
57801;BME280;43627;42.728;23.256;2023-04-08T09:37:03;95146.72;;;9.71;61.49
57801;BME280;43627;42.728;23.256;2023-04-08T09:39:30;95135.56;;;9.87;60.62
57801;BME280;43627;42.728;23.256;2023-04-08T09:41:57;95159.31;;;10.05;59.94
57801;BME280;43627;42.728;23.256;2023-04-08T09:44:28;95141.28;;;9.89;58.80
57801;BME280;43627;42.728;23.256;2023-04-08T09:47:04;95159.38;;;9.56;60.72
57801;BME280;43627;42.728;23.256;2023-04-08T09:49:37;95160.34;;;9.80;59.88
57801;BME280;43627;42.728;23.256;2023-04-08T09:52:09;95133.41;;;9.82;60.56
57801;BME280;43627;42.728;23.256;2023-04-08T09:57:13;95134.75;;;9.59;62.04
57801;BME280;43627;42.728;23.256;2023-04-08T09:59:47;95144.47;;;9.97;59.73
57801;BME280;43627;42.728;23.256;2023-04-08T10:02:24;95145.41;;;10.30;58.96
57801;BME280;43627;42.728;23.256;2023-04-08T10:04:58;95130.25;;;10.20;58.54
57801;BME280;43627;42.728;23.256;2023-04-08T10:07:26;95132.84;;;10.33;57.71
57801;BME280;43627;42.728;23.256;2023-04-08T10:09:53;95121.13;;;10.60;57.82
57801;BME280;43627;42.728;23.256;2023-04-08T10:12:20;95095.28;;;10.00;59.67
57801;BME280;43627;42.728;23.256;2023-04-08T10:17:56;95123.56;;;10.58;56.70
57801;BME280;43627;42.728;23.256;2023-04-08T10:20:46;95119.97;;;10.06;57.65
57801;BME280;43627;42.728;23.256;2023-04-08T10:23:17;95104.97;;;9.92;58.09
57801;BME280;43627;42.728;23.256;2023-04-08T10:25:45;95107.09;;;10.07;57.77
57801;BME280;43627;42.728;23.256;2023-04-08T10:30:45;95117.41;;;10.30;56.66
57801;BME280;43627;42.728;23.256;2023-04-08T10:33:20;95113.41;;;10.58;55.90
57801;BME280;43627;42.728;23.256;2023-04-08T10:36:09;95100.75;;;10.37;54.56
57801;BME280;43627;42.728;23.256;2023-04-08T10:38:38;95099.38;;;10.14;57.19
57801;BME280;43627;42.728;23.256;2023-04-08T10:41:05;95079.41;;;10.26;58.46
57801;BME280;43627;42.728;23.256;2023-04-08T10:43:33;95103.59;;;11.03;54.73
57801;BME280;43627;42.728;23.256;2023-04-08T10:46:00;95091.53;;;10.86;54.46
57801;BME280;43627;42.728;23.256;2023-04-08T10:48:27;95082.25;;;11.26;52.93
57801;BME280;43627;42.728;23.256;2023-04-08T10:51:01;95064.75;;;11.08;53.25
57801;BME280;43627;42.728;23.256;2023-04-08T10:53:31;95077.34;;;11.39;52.38
57801;BME280;43627;42.728;23.256;2023-04-08T10:56:17;95094.16;;;11.61;52.51
57801;BME280;43627;42.728;23.256;2023-04-08T10:58:52;95068.25;;;11.33;52.09
57801;BME280;43627;42.728;23.256;2023-04-08T11:01:22;95069.31;;;11.59;52.55
57801;BME280;43627;42.728;23.256;2023-04-08T11:03:49;95081.03;;;10.94;53.66
57801;BME280;43627;42.728;23.256;2023-04-08T11:06:16;95079.19;;;11.00;53.94
57801;BME280;43627;42.728;23.256;2023-04-08T11:08:44;95075.34;;;10.73;54.42
57801;BME280;43627;42.728;23.256;2023-04-08T11:11:11;95046.91;;;10.65;54.02
57801;BME280;43627;42.728;23.256;2023-04-08T11:13:40;95061.69;;;11.15;54.42
57801;BME280;43627;42.728;23.256;2023-04-08T11:16:18;94982.19;;;10.33;53.86
57801;BME280;43627;42.728;23.256;2023-04-08T11:18:46;95062.00;;;10.75;54.47
57801;BME280;43627;42.728;23.256;2023-04-08T11:21:14;95033.06;;;11.11;52.53
57801;BME280;43627;42.728;23.256;2023-04-08T11:23:42;95039.38;;;11.17;50.64
57801;BME280;43627;42.728;23.256;2023-04-08T11:26:09;95030.38;;;11.26;50.23
57801;BME280;43627;42.728;23.256;2023-04-08T11:28:36;95053.72;;;11.74;49.74
57801;BME280;43627;42.728;23.256;2023-04-08T11:31:04;95039.06;;;11.48;50.39
57801;BME280;43627;42.728;23.256;2023-04-08T11:33:32;95046.41;;;11.33;51.62
57801;BME280;43627;42.728;23.256;2023-04-08T11:36:01;95047.16;;;11.33;51.55
57801;BME280;43627;42.728;23.256;2023-04-08T11:38:30;95031.31;;;11.23;51.88
57801;BME280;43627;42.728;23.256;2023-04-08T11:40:59;95021.03;;;11.18;51.85
57801;BME280;43627;42.728;23.256;2023-04-08T11:43:26;95025.56;;;11.21;52.05
57801;BME280;43627;42.728;23.256;2023-04-08T11:45:53;95027.06;;;11.45;50.93
57801;BME280;43627;42.728;23.256;2023-04-08T11:48:19;95028.31;;;11.21;50.02
57801;BME280;43627;42.728;23.256;2023-04-08T11:50:47;95019.41;;;11.11;50.95
57801;BME280;43627;42.728;23.256;2023-04-08T11:53:21;95032.22;;;11.67;50.58
57801;BME280;43627;42.728;23.256;2023-04-08T11:55:48;95020.50;;;11.52;49.06
57801;BME280;43627;42.728;23.256;2023-04-08T11:58:15;95029.19;;;11.65;49.16
57801;BME280;43627;42.728;23.256;2023-04-08T12:00:42;95031.13;;;11.26;49.10
57801;BME280;43627;42.728;23.256;2023-04-08T12:03:09;95029.63;;;11.25;49.61
57801;BME280;43627;42.728;23.256;2023-04-08T12:05:37;95028.41;;;11.26;49.30
57801;BME280;43627;42.728;23.256;2023-04-08T12:08:04;94987.34;;;10.97;49.50
57801;BME280;43627;42.728;23.256;2023-04-08T12:10:31;95016.19;;;10.88;49.88
57801;BME280;43627;42.728;23.256;2023-04-08T12:12:58;95030.44;;;11.16;49.83
57801;BME280;43627;42.728;23.256;2023-04-08T12:15:25;95020.06;;;11.30;49.47
57801;BME280;43627;42.728;23.256;2023-04-08T12:17:52;95013.78;;;11.38;49.09
57801;BME280;43627;42.728;23.256;2023-04-08T12:20:19;95028.28;;;11.68;48.59
57801;BME280;43627;42.728;23.256;2023-04-08T12:22:46;95022.41;;;11.61;48.32
57801;BME280;43627;42.728;23.256;2023-04-08T12:25:13;95011.28;;;11.50;48.16
57801;BME280;43627;42.728;23.256;2023-04-08T12:27:40;95007.44;;;11.32;48.77
57801;BME280;43627;42.728;23.256;2023-04-08T12:30:08;95027.44;;;11.38;48.28
57801;BME280;43627;42.728;23.256;2023-04-08T12:32:35;94999.00;;;11.45;48.56
57801;BME280;43627;42.728;23.256;2023-04-08T12:35:02;95001.63;;;11.78;48.41
57801;BME280;43627;42.728;23.256;2023-04-08T12:37:28;94994.78;;;11.83;48.10
57801;BME280;43627;42.728;23.256;2023-04-08T12:39:56;95013.28;;;12.17;47.76
57801;BME280;43627;42.728;23.256;2023-04-08T12:42:22;95009.34;;;12.33;47.38
57801;BME280;43627;42.728;23.256;2023-04-08T12:44:49;95010.28;;;12.45;47.33
57801;BME280;43627;42.728;23.256;2023-04-08T12:47:16;94960.09;;;11.74;47.15
57801;BME280;43627;42.728;23.256;2023-04-08T12:49:43;95012.25;;;11.61;47.78
57801;BME280;43627;42.728;23.256;2023-04-08T12:52:15;95012.22;;;11.47;48.54
57801;BME280;43627;42.728;23.256;2023-04-08T12:54:43;95017.38;;;11.44;48.79
57801;BME280;43627;42.728;23.256;2023-04-08T12:57:10;95022.06;;;11.44;48.35
57801;BME280;43627;42.728;23.256;2023-04-08T12:59:37;94995.47;;;11.06;48.73
57801;BME280;43627;42.728;23.256;2023-04-08T13:02:06;95010.34;;;11.05;49.63
57801;BME280;43627;42.728;23.256;2023-04-08T13:04:33;94992.88;;;10.54;50.64
57801;BME280;43627;42.728;23.256;2023-04-08T13:07:00;94998.09;;;10.67;51.48
57801;BME280;43627;42.728;23.256;2023-04-08T13:09:27;95022.72;;;10.91;52.42
57801;BME280;43627;42.728;23.256;2023-04-08T13:11:56;94994.97;;;10.93;53.36
57801;BME280;43627;42.728;23.256;2023-04-08T13:14:24;95005.59;;;11.14;53.14